Detroit, Michigan
Traffic Map
Current Weather Conditions
Detroit, Michigan
Scattered Clouds
Scattered Clouds
-10°
Feels Like: -16°
Wind Chill: -16° Ceiling: Unl
Heat Index: -10° Visibility: 15mi
Dew Point: -19° Wind: 8mph
Humidity: 49% Direction: 180° (S)
Pressure: 30.46in Gusts: 0mph
Raw Report DataCYQG 141600Z 18007KT 15SM FEW020 SCT280 M10/M19 A3046 RMK SC1CI2 SLP330
Traffic Incident Summary
Active as of:
Severity:
Category:
InformationThere was an issue retrieving the traffic information for this location. Please try a different location or try again shortly.
Advertisements
Track Severe Weather on mobile